sensor_id;sensor_type;location;lat;lon;timestamp;P1;P2;P0
77239;PMS7003;66258;53.170;-2.240;2023-05-08T00:02:25;4.50;4.50;3.50
77239;PMS7003;66258;53.170;-2.240;2023-05-08T00:04:52;13.50;13.50;12.25
77239;PMS7003;66258;53.170;-2.240;2023-05-08T00:07:20;4.25;2.25;1.25
77239;PMS7003;66258;53.170;-2.240;2023-05-08T00:09:47;1.00;1.00;1.00
77239;PMS7003;66258;53.170;-2.240;2023-05-08T00:12:15;3.25;3.25;3.00
77239;PMS7003;66258;53.170;-2.240;2023-05-08T00:14:42;2.00;2.00;1.25
77239;PMS7003;66258;53.170;-2.240;2023-05-08T00:17:10;20.25;19.00;15.50
77239;PMS7003;66258;53.170;-2.240;2023-05-08T00:19:37;2.25;2.25;1.50
77239;PMS7003;66258;53.170;-2.240;2023-05-08T00:22:05;4.50;4.50;3.50
77239;PMS7003;66258;53.170;-2.240;2023-05-08T00:24:32;4.00;3.75;2.00
77239;PMS7003;66258;53.170;-2.240;2023-05-08T00:26:59;6.25;6.25;3.75
77239;PMS7003;66258;53.170;-2.240;2023-05-08T00:29:28;5.00;5.00;3.00
77239;PMS7003;66258;53.170;-2.240;2023-05-08T00:31:55;6.50;6.50;3.50
77239;PMS7003;66258;53.170;-2.240;2023-05-08T00:34:23;3.75;3.75;3.00
77239;PMS7003;66258;53.170;-2.240;2023-05-08T00:36:50;6.25;6.25;3.00
77239;PMS7003;66258;53.170;-2.240;2023-05-08T00:39:17;4.00;4.00;2.00
77239;PMS7003;66258;53.170;-2.240;2023-05-08T00:41:44;2.75;2.75;1.50
77239;PMS7003;66258;53.170;-2.240;2023-05-08T00:44:11;5.25;5.25;3.75
77239;PMS7003;66258;53.170;-2.240;2023-05-08T00:46:40;20.00;20.00;17.75
77239;PMS7003;66258;53.170;-2.240;2023-05-08T00:49:09;4.33;4.33;3.67
77239;PMS7003;66258;53.170;-2.240;2023-05-08T00:51:37;3.00;3.00;1.75
77239;PMS7003;66258;53.170;-2.240;2023-05-08T00:54:05;3.25;3.25;2.00
77239;PMS7003;66258;53.170;-2.240;2023-05-08T00:56:33;5.33;5.33;5.00
77239;PMS7003;66258;53.170;-2.240;2023-05-08T00:59:03;2.00;2.00;1.25
77239;PMS7003;66258;53.170;-2.240;2023-05-08T01:01:34;2.00;2.00;2.00
77239;PMS7003;66258;53.170;-2.240;2023-05-08T01:04:05;3.25;3.25;1.00
77239;PMS7003;66258;53.170;-2.240;2023-05-08T01:06:33;3.00;3.00;1.00
77239;PMS7003;66258;53.170;-2.240;2023-05-08T01:09:01;2.00;2.00;1.50
77239;PMS7003;66258;53.170;-2.240;2023-05-08T01:11:31;3.50;1.50;1.00
77239;PMS7003;66258;53.170;-2.240;2023-05-08T01:14:06;0.00;0.00;0.00
77239;PMS7003;66258;53.170;-2.240;2023-05-08T01:16:38;3.50;3.50;1.50
77239;PMS7003;66258;53.170;-2.240;2023-05-08T01:19:20;4.00;2.00;1.00
77239;PMS7003;66258;53.170;-2.240;2023-05-08T01:22:07;2.75;2.75;1.00
77239;PMS7003;66258;53.170;-2.240;2023-05-08T01:24:52;11.25;11.25;8.00
77239;PMS7003;66258;53.170;-2.240;2023-05-08T01:27:39;3.00;3.00;2.00
77239;PMS7003;66258;53.170;-2.240;2023-05-08T01:30:41;1.75;1.75;0.75
77239;PMS7003;66258;53.170;-2.240;2023-05-08T01:33:28;1.00;1.00;1.00
77239;PMS7003;66258;53.170;-2.240;2023-05-08T01:36:05;1.00;1.00;1.00
77239;PMS7003;66258;53.170;-2.240;2023-05-08T01:38:46;1.00;1.00;1.00
77239;PMS7003;66258;53.170;-2.240;2023-05-08T01:41:23;3.00;3.00;1.00
77239;PMS7003;66258;53.170;-2.240;2023-05-08T01:43:52;2.25;2.25;1.00
77239;PMS7003;66258;53.170;-2.240;2023-05-08T01:46:31;3.25;2.50;1.00
77239;PMS7003;66258;53.170;-2.240;2023-05-08T01:49:02;8.33;8.33;7.00
77239;PMS7003;66258;53.170;-2.240;2023-05-08T01:51:35;1.50;1.50;0.75
77239;PMS7003;66258;53.170;-2.240;2023-05-08T01:54:08;2.75;2.75;1.75
77239;PMS7003;66258;53.170;-2.240;2023-05-08T01:56:38;3.25;2.00;1.00
77239;PMS7003;66258;53.170;-2.240;2023-05-08T01:59:09;1.50;1.50;1.00
77239;PMS7003;66258;53.170;-2.240;2023-05-08T02:01:41;1.00;1.00;0.00
77239;PMS7003;66258;53.170;-2.240;2023-05-08T02:04:12;4.00;2.00;1.00
77239;PMS7003;66258;53.170;-2.240;2023-05-08T02:06:43;0.50;0.50;0.00
77239;PMS7003;66258;53.170;-2.240;2023-05-08T02:09:11;3.00;3.00;2.00
77239;PMS7003;66258;53.170;-2.240;2023-05-08T02:11:40;5.00;2.00;0.75
77239;PMS7003;66258;53.170;-2.240;2023-05-08T02:14:10;2.75;1.75;1.00
77239;PMS7003;66258;53.170;-2.240;2023-05-08T02:16:39;1.25;1.25;1.00
77239;PMS7003;66258;53.170;-2.240;2023-05-08T02:19:09;1.00;1.00;1.00
77239;PMS7003;66258;53.170;-2.240;2023-05-08T02:21:40;1.00;1.00;1.00
77239;PMS7003;66258;53.170;-2.240;2023-05-08T02:24:11;3.00;2.00;1.00
77239;PMS7003;66258;53.170;-2.240;2023-05-08T02:26:41;3.00;3.00;1.75
77239;PMS7003;66258;53.170;-2.240;2023-05-08T02:29:10;5.00;5.00;4.33
77239;PMS7003;66258;53.170;-2.240;2023-05-08T02:31:38;2.00;1.50;0.75
77239;PMS7003;66258;53.170;-2.240;2023-05-08T02:34:08;4.75;4.75;2.75
77239;PMS7003;66258;53.170;-2.240;2023-05-08T02:36:39;2.25;2.25;1.00
77239;PMS7003;66258;53.170;-2.240;2023-05-08T02:39:10;2.00;2.00;2.00
77239;PMS7003;66258;53.170;-2.240;2023-05-08T02:41:40;2.75;2.75;2.00
77239;PMS7003;66258;53.170;-2.240;2023-05-08T02:44:08;2.50;2.00;1.00
77239;PMS7003;66258;53.170;-2.240;2023-05-08T02:46:38;2.75;2.75;1.00
77239;PMS7003;66258;53.170;-2.240;2023-05-08T02:49:19;1.25;1.25;1.00
77239;PMS7003;66258;53.170;-2.240;2023-05-08T02:51:58;0.75;0.75;0.75
77239;PMS7003;66258;53.170;-2.240;2023-05-08T02:54:34;2.25;2.25;1.00
77239;PMS7003;66258;53.170;-2.240;2023-05-08T02:57:07;2.00;2.00;1.00
77239;PMS7003;66258;53.170;-2.240;2023-05-08T02:59:42;8.50;4.25;1.00
77239;PMS7003;66258;53.170;-2.240;2023-05-08T03:02:13;2.00;2.00;1.00
77239;PMS7003;66258;53.170;-2.240;2023-05-08T03:04:48;9.00;9.00;8.25
77239;PMS7003;66258;53.170;-2.240;2023-05-08T03:07:22;81.50;75.50;74.75
77239;PMS7003;66258;53.170;-2.240;2023-05-08T03:09:54;92.80;92.00;86.00
77239;PMS7003;66258;53.170;-2.240;2023-05-08T03:12:26;94.00;92.00;74.50
77239;PMS7003;66258;53.170;-2.240;2023-05-08T03:14:59;461.75;461.50;432.75
77239;PMS7003;66258;53.170;-2.240;2023-05-08T03:17:30;91.00;86.80;79.00
77239;PMS7003;66258;53.170;-2.240;2023-05-08T03:20:00;92.50;92.25;83.75
77239;PMS7003;66258;53.170;-2.240;2023-05-08T03:22:37;89.00;87.75;87.00
77239;PMS7003;66258;53.170;-2.240;2023-05-08T03:25:08;274.75;273.75;266.25
77239;PMS7003;66258;53.170;-2.240;2023-05-08T03:27:36;95.75;94.75;66.50
77239;PMS7003;66258;53.170;-2.240;2023-05-08T03:30:06;2914.75;2914.75;2899.25
77239;PMS7003;66258;53.170;-2.240;2023-05-08T03:32:35;1176.80;1176.60;1165.40
77239;PMS7003;66258;53.170;-2.240;2023-05-08T03:35:04;832.00;832.00;805.40
77239;PMS7003;66258;53.170;-2.240;2023-05-08T03:37:35;2716.60;2712.60;2689.00
77239;PMS7003;66258;53.170;-2.240;2023-05-08T03:40:03;188.60;188.00;135.80
77239;PMS7003;66258;53.170;-2.240;2023-05-08T03:42:33;1762.80;1762.80;1751.40
77239;PMS7003;66258;53.170;-2.240;2023-05-08T03:45:03;665.60;664.20;658.60
77239;PMS7003;66258;53.170;-2.240;2023-05-08T03:47:32;3082.40;3080.00;3067.40
77239;PMS7003;66258;53.170;-2.240;2023-05-08T03:50:02;2642.40;2642.40;2631.00
77239;PMS7003;66258;53.170;-2.240;2023-05-08T03:52:31;3495.20;3495.20;3494.00
77239;PMS7003;66258;53.170;-2.240;2023-05-08T03:55:00;2404.40;2401.80;2378.80
77239;PMS7003;66258;53.170;-2.240;2023-05-08T03:57:29;2842.20;2838.80;2814.20
77239;PMS7003;66258;53.170;-2.240;2023-05-08T04:00:05;3658.20;3658.20;3655.40
77239;PMS7003;66258;53.170;-2.240;2023-05-08T04:02:40;86.00;82.00;80.50
77239;PMS7003;66258;53.170;-2.240;2023-05-08T04:05:15;3705.00;3705.00;3705.00
77239;PMS7003;66258;53.170;-2.240;2023-05-08T04:07:51;2237.50;2237.50;2236.75
77239;PMS7003;66258;53.170;-2.240;2023-05-08T04:10:27;679.60;678.40;658.20
77239;PMS7003;66258;53.170;-2.240;2023-05-08T04:13:01;3399.00;3399.00;3394.20
77239;PMS7003;66258;53.170;-2.240;2023-05-08T04:15:33;3132.50;3132.50;3125.50
77239;PMS7003;66258;53.170;-2.240;2023-05-08T04:18:04;3716.40;3716.40;3716.40
77239;PMS7003;66258;53.170;-2.240;2023-05-08T04:20:33;3710.00;3710.00;3710.00
77239;PMS7003;66258;53.170;-2.240;2023-05-08T04:23:05;3006.50;3005.00;2989.00
77239;PMS7003;66258;53.170;-2.240;2023-05-08T04:25:36;3693.00;3693.00;3693.00
77239;PMS7003;66258;53.170;-2.240;2023-05-08T04:28:05;3682.60;3682.60;3682.60
77239;PMS7003;66258;53.170;-2.240;2023-05-08T04:30:33;3518.25;3516.75;3515.75
77239;PMS7003;66258;53.170;-2.240;2023-05-08T04:33:01;3685.80;3685.80;3685.80
77239;PMS7003;66258;53.170;-2.240;2023-05-08T04:35:30;3707.25;3707.25;3707.25
77239;PMS7003;66258;53.170;-2.240;2023-05-08T04:37:59;3710.00;3710.00;3710.00
77239;PMS7003;66258;53.170;-2.240;2023-05-08T04:40:27;3375.00;3375.00;3354.50
77239;PMS7003;66258;53.170;-2.240;2023-05-08T04:42:57;3464.80;3464.20;3460.40
77239;PMS7003;66258;53.170;-2.240;2023-05-08T04:45:24;3262.20;3260.20;3251.80
77239;PMS7003;66258;53.170;-2.240;2023-05-08T04:47:52;3708.40;3708.40;3708.40
77239;PMS7003;66258;53.170;-2.240;2023-05-08T04:50:23;3521.50;3520.50;3518.00
77239;PMS7003;66258;53.170;-2.240;2023-05-08T04:52:50;3215.80;3214.80;3191.40
77239;PMS7003;66258;53.170;-2.240;2023-05-08T04:55:18;3628.60;3628.20;3626.80
77239;PMS7003;66258;53.170;-2.240;2023-05-08T04:57:45;3718.00;3718.00;3718.00
77239;PMS7003;66258;53.170;-2.240;2023-05-08T05:00:15;3701.80;3701.80;3701.80
77239;PMS7003;66258;53.170;-2.240;2023-05-08T05:02:43;3690.80;3690.80;3690.80
77239;PMS7003;66258;53.170;-2.240;2023-05-08T05:05:11;3693.25;3693.25;3693.25
77239;PMS7003;66258;53.170;-2.240;2023-05-08T05:07:39;2534.75;2532.75;2507.25
77239;PMS7003;66258;53.170;-2.240;2023-05-08T05:10:06;3005.80;3005.00;3000.40
77239;PMS7003;66258;53.170;-2.240;2023-05-08T05:12:34;3717.00;3717.00;3717.00
77239;PMS7003;66258;53.170;-2.240;2023-05-08T05:15:03;3761.25;3761.25;3761.25
77239;PMS7003;66258;53.170;-2.240;2023-05-08T05:17:33;3449.25;3449.25;3443.00
77239;PMS7003;66258;53.170;-2.240;2023-05-08T05:20:01;3772.80;3772.80;3772.80
77239;PMS7003;66258;53.170;-2.240;2023-05-08T05:22:28;3671.40;3671.00;3669.80
77239;PMS7003;66258;53.170;-2.240;2023-05-08T05:24:57;3751.40;3751.40;3751.40
77239;PMS7003;66258;53.170;-2.240;2023-05-08T05:27:25;3774.40;3774.40;3774.40
77239;PMS7003;66258;53.170;-2.240;2023-05-08T05:29:53;3771.50;3771.50;3771.50
77239;PMS7003;66258;53.170;-2.240;2023-05-08T05:32:20;3763.25;3763.25;3763.25
77239;PMS7003;66258;53.170;-2.240;2023-05-08T05:34:50;3752.80;3752.80;3752.80
77239;PMS7003;66258;53.170;-2.240;2023-05-08T05:37:17;3773.25;3773.25;3773.25
77239;PMS7003;66258;53.170;-2.240;2023-05-08T05:39:44;3775.00;3775.00;3775.00
77239;PMS7003;66258;53.170;-2.240;2023-05-08T05:42:12;3766.20;3766.20;3766.20
77239;PMS7003;66258;53.170;-2.240;2023-05-08T05:44:39;3633.50;3633.00;3629.00
77239;PMS7003;66258;53.170;-2.240;2023-05-08T05:47:07;3774.80;3774.80;3774.80
77239;PMS7003;66258;53.170;-2.240;2023-05-08T05:49:34;3801.25;3801.25;3801.25
77239;PMS7003;66258;53.170;-2.240;2023-05-08T05:52:04;3790.50;3790.50;3790.50
77239;PMS7003;66258;53.170;-2.240;2023-05-08T05:54:32;3781.75;3781.75;3781.75
77239;PMS7003;66258;53.170;-2.240;2023-05-08T05:57:00;3808.60;3808.60;3808.60
77239;PMS7003;66258;53.170;-2.240;2023-05-08T05:59:27;3782.00;3782.00;3782.00
77239;PMS7003;66258;53.170;-2.240;2023-05-08T06:01:54;3682.75;3682.75;3680.75
77239;PMS7003;66258;53.170;-2.240;2023-05-08T06:04:22;3810.20;3810.20;3810.20
77239;PMS7003;66258;53.170;-2.240;2023-05-08T06:06:50;3780.00;3780.00;3780.00
77239;PMS7003;66258;53.170;-2.240;2023-05-08T06:09:19;3767.00;3767.00;3767.00
77239;PMS7003;66258;53.170;-2.240;2023-05-08T06:11:46;3746.00;3746.00;3746.00
77239;PMS7003;66258;53.170;-2.240;2023-05-08T06:14:14;3773.50;3773.50;3773.50
77239;PMS7003;66258;53.170;-2.240;2023-05-08T06:16:41;3788.50;3788.50;3788.50
77239;PMS7003;66258;53.170;-2.240;2023-05-08T06:19:09;3786.80;3786.80;3786.80
77239;PMS7003;66258;53.170;-2.240;2023-05-08T06:21:36;3798.60;3798.60;3798.60
77239;PMS7003;66258;53.170;-2.240;2023-05-08T06:24:04;3800.40;3800.40;3800.40
77239;PMS7003;66258;53.170;-2.240;2023-05-08T06:26:33;3761.40;3761.40;3761.40
77239;PMS7003;66258;53.170;-2.240;2023-05-08T06:29:01;3795.00;3795.00;3795.00
77239;PMS7003;66258;53.170;-2.240;2023-05-08T06:31:28;3766.80;3766.80;3766.80
77239;PMS7003;66258;53.170;-2.240;2023-05-08T06:33:56;3793.20;3793.20;3793.20
77239;PMS7003;66258;53.170;-2.240;2023-05-08T06:36:23;3755.40;3755.40;3755.40
77239;PMS7003;66258;53.170;-2.240;2023-05-08T06:38:51;3790.75;3790.75;3790.75
77239;PMS7003;66258;53.170;-2.240;2023-05-08T06:41:18;3756.50;3756.50;3756.50
77239;PMS7003;66258;53.170;-2.240;2023-05-08T06:43:47;3776.20;3776.20;3776.20
77239;PMS7003;66258;53.170;-2.240;2023-05-08T06:46:15;3785.00;3785.00;3785.00
77239;PMS7003;66258;53.170;-2.240;2023-05-08T06:48:43;3751.40;3751.40;3751.40
77239;PMS7003;66258;53.170;-2.240;2023-05-08T06:51:10;3800.40;3800.40;3800.40
77239;PMS7003;66258;53.170;-2.240;2023-05-08T06:53:38;3746.40;3746.40;3746.40
77239;PMS7003;66258;53.170;-2.240;2023-05-08T06:56:06;3801.25;3801.25;3801.25
77239;PMS7003;66258;53.170;-2.240;2023-05-08T06:58:33;3747.80;3747.80;3747.80
77239;PMS7003;66258;53.170;-2.240;2023-05-08T07:01:03;3748.00;3748.00;3748.00
77239;PMS7003;66258;53.170;-2.240;2023-05-08T07:03:31;3790.25;3790.25;3790.25
77239;PMS7003;66258;53.170;-2.240;2023-05-08T07:05:58;3784.25;3784.25;3784.25
77239;PMS7003;66258;53.170;-2.240;2023-05-08T07:08:25;3786.80;3786.80;3786.80
77239;PMS7003;66258;53.170;-2.240;2023-05-08T07:10:53;3771.60;3771.60;3771.60
77239;PMS7003;66258;53.170;-2.240;2023-05-08T07:13:22;3793.20;3793.20;3793.20
77239;PMS7003;66258;53.170;-2.240;2023-05-08T07:15:49;3802.20;3802.20;3802.20
77239;PMS7003;66258;53.170;-2.240;2023-05-08T07:18:19;3746.60;3746.60;3746.60
77239;PMS7003;66258;53.170;-2.240;2023-05-08T07:20:46;3784.00;3784.00;3784.00
77239;PMS7003;66258;53.170;-2.240;2023-05-08T07:23:14;3771.50;3771.50;3771.50
77239;PMS7003;66258;53.170;-2.240;2023-05-08T07:25:42;3779.60;3779.60;3779.60
77239;PMS7003;66258;53.170;-2.240;2023-05-08T07:28:09;3761.25;3761.25;3761.25
77239;PMS7003;66258;53.170;-2.240;2023-05-08T07:30:37;3746.50;3746.50;3746.50
77239;PMS7003;66258;53.170;-2.240;2023-05-08T07:33:05;3756.20;3756.20;3756.20
77239;PMS7003;66258;53.170;-2.240;2023-05-08T07:35:34;3777.50;3777.50;3777.50
77239;PMS7003;66258;53.170;-2.240;2023-05-08T07:38:04;3726.20;3726.20;3726.20
77239;PMS7003;66258;53.170;-2.240;2023-05-08T07:40:31;3786.75;3786.75;3786.75
77239;PMS7003;66258;53.170;-2.240;2023-05-08T07:42:59;3786.80;3786.80;3786.80
77239;PMS7003;66258;53.170;-2.240;2023-05-08T07:45:26;3741.60;3741.60;3741.60
77239;PMS7003;66258;53.170;-2.240;2023-05-08T07:47:55;3723.80;3723.80;3723.80
77239;PMS7003;66258;53.170;-2.240;2023-05-08T07:50:24;3734.50;3734.50;3734.50
77239;PMS7003;66258;53.170;-2.240;2023-05-08T07:52:53;3740.00;3740.00;3740.00
77239;PMS7003;66258;53.170;-2.240;2023-05-08T07:55:21;3775.50;3775.50;3775.50
77239;PMS7003;66258;53.170;-2.240;2023-05-08T07:57:48;3773.50;3773.50;3773.50
77239;PMS7003;66258;53.170;-2.240;2023-05-08T08:00:16;3754.40;3754.40;3754.40
77239;PMS7003;66258;53.170;-2.240;2023-05-08T08:02:44;3776.80;3776.80;3776.80
77239;PMS7003;66258;53.170;-2.240;2023-05-08T08:05:11;3751.60;3751.60;3751.60
77239;PMS7003;66258;53.170;-2.240;2023-05-08T08:07:39;3759.00;3759.00;3759.00
77239;PMS7003;66258;53.170;-2.240;2023-05-08T08:10:09;3763.50;3763.50;3763.50
77239;PMS7003;66258;53.170;-2.240;2023-05-08T08:12:36;3769.25;3769.25;3769.25
77239;PMS7003;66258;53.170;-2.240;2023-05-08T08:15:04;3805.60;3805.60;3805.60
77239;PMS7003;66258;53.170;-2.240;2023-05-08T08:17:32;3780.00;3780.00;3780.00
77239;PMS7003;66258;53.170;-2.240;2023-05-08T08:19:59;3740.00;3740.00;3740.00
77239;PMS7003;66258;53.170;-2.240;2023-05-08T08:22:27;3788.60;3788.60;3788.60
77239;PMS7003;66258;53.170;-2.240;2023-05-08T08:24:55;3742.50;3742.50;3742.50
77239;PMS7003;66258;53.170;-2.240;2023-05-08T08:27:25;3726.00;3726.00;3726.00
77239;PMS7003;66258;53.170;-2.240;2023-05-08T08:29:53;3726.00;3726.00;3726.00
77239;PMS7003;66258;53.170;-2.240;2023-05-08T08:32:41;3714.20;3714.20;3714.20
77239;PMS7003;66258;53.170;-2.240;2023-05-08T08:35:09;3742.50;3742.50;3742.50
77239;PMS7003;66258;53.170;-2.240;2023-05-08T08:37:37;3728.40;3728.40;3728.40
77239;PMS7003;66258;53.170;-2.240;2023-05-08T08:40:05;3721.50;3721.50;3721.50
77239;PMS7003;66258;53.170;-2.240;2023-05-08T08:42:36;3741.80;3741.80;3741.80
77239;PMS7003;66258;53.170;-2.240;2023-05-08T08:45:03;3728.20;3728.20;3728.20
77239;PMS7003;66258;53.170;-2.240;2023-05-08T08:47:34;3726.00;3726.00;3726.00
77239;PMS7003;66258;53.170;-2.240;2023-05-08T08:50:03;3738.00;3738.00;3738.00
77239;PMS7003;66258;53.170;-2.240;2023-05-08T08:52:38;3731.60;3731.60;3731.60
77239;PMS7003;66258;53.170;-2.240;2023-05-08T08:55:10;3752.75;3752.75;3752.75
77239;PMS7003;66258;53.170;-2.240;2023-05-08T08:57:44;3711.00;3711.00;3711.00
77239;PMS7003;66258;53.170;-2.240;2023-05-08T09:00:19;3703.60;3703.60;3703.60
77239;PMS7003;66258;53.170;-2.240;2023-05-08T09:02:47;3717.50;3717.50;3717.50
77239;PMS7003;66258;53.170;-2.240;2023-05-08T09:05:15;3743.00;3743.00;3743.00
77239;PMS7003;66258;53.170;-2.240;2023-05-08T09:07:44;3710.00;3710.00;3710.00
77239;PMS7003;66258;53.170;-2.240;2023-05-08T09:10:12;3748.50;3748.50;3748.50
77239;PMS7003;66258;53.170;-2.240;2023-05-08T09:12:39;3738.50;3738.50;3738.50
77239;PMS7003;66258;53.170;-2.240;2023-05-08T09:15:09;3713.50;3713.50;3713.50
77239;PMS7003;66258;53.170;-2.240;2023-05-08T09:17:37;3738.00;3738.00;3738.00
77239;PMS7003;66258;53.170;-2.240;2023-05-08T09:20:05;3744.25;3744.25;3744.25
77239;PMS7003;66258;53.170;-2.240;2023-05-08T09:22:36;3720.00;3720.00;3720.00
77239;PMS7003;66258;53.170;-2.240;2023-05-08T09:25:04;3724.00;3724.00;3724.00
77239;PMS7003;66258;53.170;-2.240;2023-05-08T09:27:33;3705.25;3705.25;3705.25
77239;PMS7003;66258;53.170;-2.240;2023-05-08T09:30:01;3726.80;3726.80;3726.80
77239;PMS7003;66258;53.170;-2.240;2023-05-08T09:32:32;3703.50;3703.50;3703.50
77239;PMS7003;66258;53.170;-2.240;2023-05-08T09:35:02;3728.60;3728.60;3728.60
77239;PMS7003;66258;53.170;-2.240;2023-05-08T09:37:31;3682.80;3682.80;3682.80
77239;PMS7003;66258;53.170;-2.240;2023-05-08T09:40:14;3709.75;3709.75;3709.75
77239;PMS7003;66258;53.170;-2.240;2023-05-08T09:42:44;3721.75;3721.75;3721.75
77239;PMS7003;66258;53.170;-2.240;2023-05-08T09:45:24;3711.50;3711.50;3711.50
77239;PMS7003;66258;53.170;-2.240;2023-05-08T09:47:56;3719.60;3719.60;3719.60
77239;PMS7003;66258;53.170;-2.240;2023-05-08T09:50:24;3711.50;3711.50;3711.50
77239;PMS7003;66258;53.170;-2.240;2023-05-08T09:52:51;3707.50;3707.50;3707.50
77239;PMS7003;66258;53.170;-2.240;2023-05-08T09:55:19;3700.40;3700.40;3700.40
77239;PMS7003;66258;53.170;-2.240;2023-05-08T09:57:51;3692.60;3692.60;3692.60
77239;PMS7003;66258;53.170;-2.240;2023-05-08T10:00:21;3679.60;3679.60;3679.60
77239;PMS7003;66258;53.170;-2.240;2023-05-08T10:02:53;3685.00;3685.00;3685.00
77239;PMS7003;66258;53.170;-2.240;2023-05-08T10:05:24;3724.33;3724.33;3724.33
77239;PMS7003;66258;53.170;-2.240;2023-05-08T10:07:52;3713.00;3713.00;3713.00
77239;PMS7003;66258;53.170;-2.240;2023-05-08T10:10:23;3677.00;3677.00;3677.00
77239;PMS7003;66258;53.170;-2.240;2023-05-08T10:12:51;3701.50;3701.50;3701.50
77239;PMS7003;66258;53.170;-2.240;2023-05-08T10:15:22;3669.50;3669.50;3669.50
77239;PMS7003;66258;53.170;-2.240;2023-05-08T10:17:52;3653.00;3653.00;3653.00
77239;PMS7003;66258;53.170;-2.240;2023-05-08T10:20:23;3673.00;3673.00;3673.00
77239;PMS7003;66258;53.170;-2.240;2023-05-08T10:22:55;3687.40;3687.40;3687.40
77239;PMS7003;66258;53.170;-2.240;2023-05-08T10:25:24;3671.50;3671.50;3671.50
77239;PMS7003;66258;53.170;-2.240;2023-05-08T10:27:53;3677.00;3677.00;3677.00
77239;PMS7003;66258;53.170;-2.240;2023-05-08T10:30:27;3637.40;3637.40;3637.40
77239;PMS7003;66258;53.170;-2.240;2023-05-08T10:32:58;3677.00;3677.00;3677.00
77239;PMS7003;66258;53.170;-2.240;2023-05-08T10:35:35;3708.40;3708.40;3708.40
77239;PMS7003;66258;53.170;-2.240;2023-05-08T10:38:03;3655.40;3655.40;3655.40
77239;PMS7003;66258;53.170;-2.240;2023-05-08T10:40:35;3684.20;3684.20;3684.20
77239;PMS7003;66258;53.170;-2.240;2023-05-08T10:43:04;3627.80;3627.80;3627.80
77239;PMS7003;66258;53.170;-2.240;2023-05-08T10:45:33;3683.00;3683.00;3683.00
77239;PMS7003;66258;53.170;-2.240;2023-05-08T10:48:03;3683.25;3683.25;3683.25
77239;PMS7003;66258;53.170;-2.240;2023-05-08T10:50:48;3663.40;3663.40;3663.40
77239;PMS7003;66258;53.170;-2.240;2023-05-08T10:53:29;3697.50;3697.50;3697.50
77239;PMS7003;66258;53.170;-2.240;2023-05-08T10:56:00;3653.50;3653.50;3653.50
77239;PMS7003;66258;53.170;-2.240;2023-05-08T10:58:29;3652.80;3652.80;3652.80
77239;PMS7003;66258;53.170;-2.240;2023-05-08T11:01:10;3653.80;3653.80;3653.80
77239;PMS7003;66258;53.170;-2.240;2023-05-08T11:03:43;3673.00;3673.00;3673.00
77239;PMS7003;66258;53.170;-2.240;2023-05-08T11:06:14;3653.50;3653.50;3653.50
77239;PMS7003;66258;53.170;-2.240;2023-05-08T11:08:49;3630.00;3630.00;3630.00
77239;PMS7003;66258;53.170;-2.240;2023-05-08T11:11:28;3661.50;3661.50;3661.50
77239;PMS7003;66258;53.170;-2.240;2023-05-08T11:13:58;3605.00;3605.00;3605.00
77239;PMS7003;66258;53.170;-2.240;2023-05-08T11:19:36;3655.40;3655.40;3655.40
77239;PMS7003;66258;53.170;-2.240;2023-05-08T11:22:12;3601.00;3601.00;3601.00
77239;PMS7003;66258;53.170;-2.240;2023-05-08T11:24:51;3630.00;3630.00;3630.00
77239;PMS7003;66258;53.170;-2.240;2023-05-08T11:27:32;3649.50;3649.50;3649.50
77239;PMS7003;66258;53.170;-2.240;2023-05-08T11:30:17;3561.00;3561.00;3561.00
77239;PMS7003;66258;53.170;-2.240;2023-05-08T11:32:59;3610.50;3610.50;3610.50
77239;PMS7003;66258;53.170;-2.240;2023-05-08T11:35:42;3607.20;3607.20;3607.20
77239;PMS7003;66258;53.170;-2.240;2023-05-08T11:38:24;3569.80;3569.80;3569.80
77239;PMS7003;66258;53.170;-2.240;2023-05-08T11:40:56;3608.80;3608.80;3608.80
77239;PMS7003;66258;53.170;-2.240;2023-05-08T11:43:30;3590.60;3590.60;3590.60
77239;PMS7003;66258;53.170;-2.240;2023-05-08T11:46:23;3595.50;3595.50;3595.50
77239;PMS7003;66258;53.170;-2.240;2023-05-08T11:49:10;3568.75;3568.75;3568.75
77239;PMS7003;66258;53.170;-2.240;2023-05-08T11:51:40;3563.40;3563.40;3563.40
77239;PMS7003;66258;53.170;-2.240;2023-05-08T11:54:09;3580.00;3580.00;3580.00
77239;PMS7003;66258;53.170;-2.240;2023-05-08T11:56:39;3573.80;3573.80;3573.80
77239;PMS7003;66258;53.170;-2.240;2023-05-08T11:59:07;3565.00;3565.00;3565.00
77239;PMS7003;66258;53.170;-2.240;2023-05-08T12:01:36;3585.50;3585.50;3585.50
77239;PMS7003;66258;53.170;-2.240;2023-05-08T12:04:04;3593.50;3593.50;3593.50
77239;PMS7003;66258;53.170;-2.240;2023-05-08T12:06:35;3590.40;3590.40;3590.40
77239;PMS7003;66258;53.170;-2.240;2023-05-08T12:09:11;3588.00;3588.00;3588.00
77239;PMS7003;66258;53.170;-2.240;2023-05-08T12:11:40;3556.00;3556.00;3556.00
77239;PMS7003;66258;53.170;-2.240;2023-05-08T12:14:08;3582.00;3582.00;3582.00
77239;PMS7003;66258;53.170;-2.240;2023-05-08T12:16:36;3580.00;3580.00;3580.00
77239;PMS7003;66258;53.170;-2.240;2023-05-08T12:19:08;3607.20;3607.20;3607.20
77239;PMS7003;66258;53.170;-2.240;2023-05-08T12:21:37;3593.20;3593.20;3593.20
77239;PMS7003;66258;53.170;-2.240;2023-05-08T12:24:05;3588.00;3588.00;3588.00
77239;PMS7003;66258;53.170;-2.240;2023-05-08T12:26:38;3574.50;3574.50;3574.50
77239;PMS7003;66258;53.170;-2.240;2023-05-08T12:29:06;3561.00;3561.00;3561.00
77239;PMS7003;66258;53.170;-2.240;2023-05-08T12:31:34;3553.50;3553.50;3553.50
77239;PMS7003;66258;53.170;-2.240;2023-05-08T12:34:03;3565.00;3565.00;3565.00
77239;PMS7003;66258;53.170;-2.240;2023-05-08T12:36:33;3572.50;3572.50;3572.50
77239;PMS7003;66258;53.170;-2.240;2023-05-08T12:39:08;3520.00;3520.00;3520.00
77239;PMS7003;66258;53.170;-2.240;2023-05-08T12:41:42;3538.75;3538.75;3538.75
77239;PMS7003;66258;53.170;-2.240;2023-05-08T12:44:17;3539.40;3539.40;3539.40
77239;PMS7003;66258;53.170;-2.240;2023-05-08T12:46:46;3544.00;3544.00;3544.00
77239;PMS7003;66258;53.170;-2.240;2023-05-08T12:49:21;3537.60;3537.60;3537.60
77239;PMS7003;66258;53.170;-2.240;2023-05-08T12:51:49;3558.60;3558.60;3558.60
77239;PMS7003;66258;53.170;-2.240;2023-05-08T12:54:17;3515.00;3515.00;3515.00
77239;PMS7003;66258;53.170;-2.240;2023-05-08T12:56:47;3539.00;3539.00;3539.00
77239;PMS7003;66258;53.170;-2.240;2023-05-08T12:59:15;3554.00;3554.00;3554.00
77239;PMS7003;66258;53.170;-2.240;2023-05-08T13:01:48;3521.40;3521.40;3521.40
77239;PMS7003;66258;53.170;-2.240;2023-05-08T13:04:16;3554.40;3554.40;3554.40
77239;PMS7003;66258;53.170;-2.240;2023-05-08T13:06:52;3492.20;3492.20;3492.20
77239;PMS7003;66258;53.170;-2.240;2023-05-08T13:09:21;3535.50;3535.50;3535.50
77239;PMS7003;66258;53.170;-2.240;2023-05-08T13:11:51;3542.75;3542.75;3542.75
77239;PMS7003;66258;53.170;-2.240;2023-05-08T13:14:18;3523.20;3523.20;3523.20
77239;PMS7003;66258;53.170;-2.240;2023-05-08T13:16:48;3542.50;3542.50;3542.50